Bucks Landing, Louisiana
Current Conditions -  °F | °C
As of 4:53 PM on Thursday 27 Nov 2014 (Local Time) from KAEX Reporting Station
Clear Clear  
Wind Chill: 54°   Ceiling: Unl
Heat Index: 54°   Visibility: 10mi
Dew Point: 31°   Wind: 6mph
Humidity: 41%   Direction: 30°NNE
Pressure: 30.43"   Gusts: NA
Location:  31.0356°N, 92.5053°W
Report Text: KAEX 272253Z AUTO 03005KT 10SM CLR 12/M01 A3043 RMK AO2 SLP310 T01221006
Loading
Personal Weather Stations






























Interactive Weather Map New forecast layout! Learn more

10-Day Weather Forecast

Advertisements
Track Severe Weather on mobile